sensor_id;sensor_type;location;lat;lon;timestamp;temperature;humidity
2997;DHT22;1508;48.744;9.110;2022-09-01T00:01:58;15.10;99.90
2997;DHT22;1508;48.744;9.110;2022-09-01T00:04:44;15.00;99.90
2997;DHT22;1508;48.744;9.110;2022-09-01T00:07:30;15.10;99.90
2997;DHT22;1508;48.744;9.110;2022-09-01T00:10:16;15.00;99.90
2997;DHT22;1508;48.744;9.110;2022-09-01T00:13:02;15.00;99.90
2997;DHT22;1508;48.744;9.110;2022-09-01T00:15:48;15.00;99.90
2997;DHT22;1508;48.744;9.110;2022-09-01T00:18:34;15.00;99.90
2997;DHT22;1508;48.744;9.110;2022-09-01T00:21:26;15.00;99.90
2997;DHT22;1508;48.744;9.110;2022-09-01T00:24:14;15.10;99.90
2997;DHT22;1508;48.744;9.110;2022-09-01T00:27:00;15.10;99.90
2997;DHT22;1508;48.744;9.110;2022-09-01T00:29:47;15.10;99.90
2997;DHT22;1508;48.744;9.110;2022-09-01T00:32:33;15.10;99.90
2997;DHT22;1508;48.744;9.110;2022-09-01T00:35:19;15.10;99.90
2997;DHT22;1508;48.744;9.110;2022-09-01T00:38:05;15.10;99.90
2997;DHT22;1508;48.744;9.110;2022-09-01T00:40:51;15.10;99.90
2997;DHT22;1508;48.744;9.110;2022-09-01T00:43:49;15.10;99.90
2997;DHT22;1508;48.744;9.110;2022-09-01T00:46:38;15.10;99.90
2997;DHT22;1508;48.744;9.110;2022-09-01T00:49:33;15.00;99.90
2997;DHT22;1508;48.744;9.110;2022-09-01T00:52:30;15.00;99.90
2997;DHT22;1508;48.744;9.110;2022-09-01T00:55:42;15.00;99.90
2997;DHT22;1508;48.744;9.110;2022-09-01T00:58:29;15.00;99.90
2997;DHT22;1508;48.744;9.110;2022-09-01T01:01:17;15.00;99.90
2997;DHT22;1508;48.744;9.110;2022-09-01T01:04:05;15.00;99.90
2997;DHT22;1508;48.744;9.110;2022-09-01T01:06:55;15.00;99.90
2997;DHT22;1508;48.744;9.110;2022-09-01T01:09:43;15.00;99.90
2997;DHT22;1508;48.744;9.110;2022-09-01T01:12:29;14.90;99.90
2997;DHT22;1508;48.744;9.110;2022-09-01T01:15:15;14.90;99.90
2997;DHT22;1508;48.744;9.110;2022-09-01T01:18:01;14.80;99.90
2997;DHT22;1508;48.744;9.110;2022-09-01T01:20:47;14.80;99.90
2997;DHT22;1508;48.744;9.110;2022-09-01T01:23:39;14.80;99.90
2997;DHT22;1508;48.744;9.110;2022-09-01T01:26:27;14.80;99.90
2997;DHT22;1508;48.744;9.110;2022-09-01T01:29:13;14.80;99.90
2997;DHT22;1508;48.744;9.110;2022-09-01T01:31:59;14.70;99.90
2997;DHT22;1508;48.744;9.110;2022-09-01T01:34:45;14.70;99.90
2997;DHT22;1508;48.744;9.110;2022-09-01T01:37:34;14.70;99.90
2997;DHT22;1508;48.744;9.110;2022-09-01T01:40:20;14.70;99.90
2997;DHT22;1508;48.744;9.110;2022-09-01T01:43:07;14.70;99.90
2997;DHT22;1508;48.744;9.110;2022-09-01T01:45:55;14.70;99.90
2997;DHT22;1508;48.744;9.110;2022-09-01T01:48:41;14.70;99.90
2997;DHT22;1508;48.744;9.110;2022-09-01T01:51:28;14.70;99.90
2997;DHT22;1508;48.744;9.110;2022-09-01T01:54:14;14.70;99.90
2997;DHT22;1508;48.744;9.110;2022-09-01T01:57:01;14.70;99.90
2997;DHT22;1508;48.744;9.110;2022-09-01T01:59:47;14.70;99.90
2997;DHT22;1508;48.744;9.110;2022-09-01T02:02:32;14.80;99.90
2997;DHT22;1508;48.744;9.110;2022-09-01T02:05:25;14.80;99.90
2997;DHT22;1508;48.744;9.110;2022-09-01T02:08:12;14.70;99.90
2997;DHT22;1508;48.744;9.110;2022-09-01T02:10:58;14.70;99.90
2997;DHT22;1508;48.744;9.110;2022-09-01T02:13:44;14.70;99.90
2997;DHT22;1508;48.744;9.110;2022-09-01T02:16:31;14.70;99.90
2997;DHT22;1508;48.744;9.110;2022-09-01T02:19:17;14.70;99.90
2997;DHT22;1508;48.744;9.110;2022-09-01T02:22:03;14.60;99.90
2997;DHT22;1508;48.744;9.110;2022-09-01T02:24:49;14.60;99.90
2997;DHT22;1508;48.744;9.110;2022-09-01T02:27:35;14.60;99.90
2997;DHT22;1508;48.744;9.110;2022-09-01T02:30:21;14.60;99.90
2997;DHT22;1508;48.744;9.110;2022-09-01T02:33:07;14.60;99.90
2997;DHT22;1508;48.744;9.110;2022-09-01T02:35:59;14.60;99.90
2997;DHT22;1508;48.744;9.110;2022-09-01T02:38:46;14.60;99.90
2997;DHT22;1508;48.744;9.110;2022-09-01T02:41:32;14.60;99.90
2997;DHT22;1508;48.744;9.110;2022-09-01T02:44:18;14.50;99.90
2997;DHT22;1508;48.744;9.110;2022-09-01T02:47:04;14.50;99.90
2997;DHT22;1508;48.744;9.110;2022-09-01T02:49:50;14.50;99.90
2997;DHT22;1508;48.744;9.110;2022-09-01T02:52:36;14.50;99.90
2997;DHT22;1508;48.744;9.110;2022-09-01T02:55:24;14.50;99.90
2997;DHT22;1508;48.744;9.110;2022-09-01T02:58:10;14.40;99.90
2997;DHT22;1508;48.744;9.110;2022-09-01T03:00:56;14.40;99.90
2997;DHT22;1508;48.744;9.110;2022-09-01T03:03:42;14.40;99.90
2997;DHT22;1508;48.744;9.110;2022-09-01T03:06:29;14.30;99.90
2997;DHT22;1508;48.744;9.110;2022-09-01T03:09:17;14.30;99.90
2997;DHT22;1508;48.744;9.110;2022-09-01T03:12:03;14.30;99.90
2997;DHT22;1508;48.744;9.110;2022-09-01T03:14:49;14.30;99.90
2997;DHT22;1508;48.744;9.110;2022-09-01T03:17:35;14.20;99.90
2997;DHT22;1508;48.744;9.110;2022-09-01T03:20:20;14.30;99.90
2997;DHT22;1508;48.744;9.110;2022-09-01T03:23:07;14.20;99.90
2997;DHT22;1508;48.744;9.110;2022-09-01T03:25:54;14.20;99.90
2997;DHT22;1508;48.744;9.110;2022-09-01T03:28:40;14.20;99.90
2997;DHT22;1508;48.744;9.110;2022-09-01T03:31:26;14.20;99.90
2997;DHT22;1508;48.744;9.110;2022-09-01T03:34:12;14.20;99.90
2997;DHT22;1508;48.744;9.110;2022-09-01T03:36:58;14.20;99.90
2997;DHT22;1508;48.744;9.110;2022-09-01T03:39:43;14.20;99.90
2997;DHT22;1508;48.744;9.110;2022-09-01T03:42:30;14.10;99.90
2997;DHT22;1508;48.744;9.110;2022-09-01T03:45:15;14.10;99.90
2997;DHT22;1508;48.744;9.110;2022-09-01T03:48:01;14.10;99.90
2997;DHT22;1508;48.744;9.110;2022-09-01T03:50:47;14.10;99.90
2997;DHT22;1508;48.744;9.110;2022-09-01T03:53:34;14.10;99.90
2997;DHT22;1508;48.744;9.110;2022-09-01T03:56:22;14.10;99.90
2997;DHT22;1508;48.744;9.110;2022-09-01T03:59:09;14.10;99.90
2997;DHT22;1508;48.744;9.110;2022-09-01T04:01:55;14.10;99.90
2997;DHT22;1508;48.744;9.110;2022-09-01T04:04:40;14.10;99.90
2997;DHT22;1508;48.744;9.110;2022-09-01T04:07:26;14.10;99.90
2997;DHT22;1508;48.744;9.110;2022-09-01T04:10:13;14.10;99.90
2997;DHT22;1508;48.744;9.110;2022-09-01T04:13:03;14.10;99.90
2997;DHT22;1508;48.744;9.110;2022-09-01T04:15:49;14.10;99.90
2997;DHT22;1508;48.744;9.110;2022-09-01T04:18:35;14.10;99.90
2997;DHT22;1508;48.744;9.110;2022-09-01T04:21:21;14.10;99.90
2997;DHT22;1508;48.744;9.110;2022-09-01T04:24:07;14.10;99.90
2997;DHT22;1508;48.744;9.110;2022-09-01T04:26:55;14.00;99.90
2997;DHT22;1508;48.744;9.110;2022-09-01T04:29:41;14.10;99.90
2997;DHT22;1508;48.744;9.110;2022-09-01T04:32:27;14.10;99.90
2997;DHT22;1508;48.744;9.110;2022-09-01T04:35:13;14.10;99.90
2997;DHT22;1508;48.744;9.110;2022-09-01T04:37:59;14.00;99.90
2997;DHT22;1508;48.744;9.110;2022-09-01T04:40:45;14.00;99.90
2997;DHT22;1508;48.744;9.110;2022-09-01T04:43:31;14.00;99.90
2997;DHT22;1508;48.744;9.110;2022-09-01T04:46:18;14.00;99.90
2997;DHT22;1508;48.744;9.110;2022-09-01T04:49:05;14.10;99.90
2997;DHT22;1508;48.744;9.110;2022-09-01T04:51:52;14.10;99.90
2997;DHT22;1508;48.744;9.110;2022-09-01T04:54:38;14.20;99.90
2997;DHT22;1508;48.744;9.110;2022-09-01T04:57:24;14.20;99.90
2997;DHT22;1508;48.744;9.110;2022-09-01T05:00:10;14.20;99.90
2997;DHT22;1508;48.744;9.110;2022-09-01T05:02:59;14.30;99.90
2997;DHT22;1508;48.744;9.110;2022-09-01T05:05:46;14.30;99.90
2997;DHT22;1508;48.744;9.110;2022-09-01T05:08:32;14.40;99.90
2997;DHT22;1508;48.744;9.110;2022-09-01T05:11:18;14.40;99.90
2997;DHT22;1508;48.744;9.110;2022-09-01T05:14:04;14.50;99.90
2997;DHT22;1508;48.744;9.110;2022-09-01T05:16:57;14.70;99.90
2997;DHT22;1508;48.744;9.110;2022-09-01T05:19:46;14.70;99.90
2997;DHT22;1508;48.744;9.110;2022-09-01T05:22:32;14.90;99.90
2997;DHT22;1508;48.744;9.110;2022-09-01T05:25:18;15.00;99.90
2997;DHT22;1508;48.744;9.110;2022-09-01T05:28:04;15.10;99.90
2997;DHT22;1508;48.744;9.110;2022-09-01T05:30:50;15.20;99.90
2997;DHT22;1508;48.744;9.110;2022-09-01T05:33:36;15.50;99.90
2997;DHT22;1508;48.744;9.110;2022-09-01T05:36:23;15.50;99.90
2997;DHT22;1508;48.744;9.110;2022-09-01T05:39:10;15.60;99.90
2997;DHT22;1508;48.744;9.110;2022-09-01T05:41:58;15.90;99.90
2997;DHT22;1508;48.744;9.110;2022-09-01T05:44:44;16.10;99.90
2997;DHT22;1508;48.744;9.110;2022-09-01T05:47:30;16.80;99.90
2997;DHT22;1508;48.744;9.110;2022-09-01T05:50:16;17.30;99.90
2997;DHT22;1508;48.744;9.110;2022-09-01T05:53:01;17.80;99.90
2997;DHT22;1508;48.744;9.110;2022-09-01T05:55:47;17.90;99.90
2997;DHT22;1508;48.744;9.110;2022-09-01T05:58:33;18.00;99.90
2997;DHT22;1508;48.744;9.110;2022-09-01T06:01:25;18.00;99.90
2997;DHT22;1508;48.744;9.110;2022-09-01T06:04:11;18.00;99.90
2997;DHT22;1508;48.744;9.110;2022-09-01T06:06:57;18.00;99.90
2997;DHT22;1508;48.744;9.110;2022-09-01T06:09:46;17.90;99.90
2997;DHT22;1508;48.744;9.110;2022-09-01T06:12:32;17.90;99.90
2997;DHT22;1508;48.744;9.110;2022-09-01T06:15:18;17.60;99.90
2997;DHT22;1508;48.744;9.110;2022-09-01T06:18:05;17.40;99.90
2997;DHT22;1508;48.744;9.110;2022-09-01T06:20:51;17.30;99.90
2997;DHT22;1508;48.744;9.110;2022-09-01T06:23:37;17.30;99.90
2997;DHT22;1508;48.744;9.110;2022-09-01T06:26:27;17.30;99.90
2997;DHT22;1508;48.744;9.110;2022-09-01T06:29:13;17.30;99.90
2997;DHT22;1508;48.744;9.110;2022-09-01T06:31:59;17.20;99.90
2997;DHT22;1508;48.744;9.110;2022-09-01T06:34:45;17.20;99.90
2997;DHT22;1508;48.744;9.110;2022-09-01T06:37:31;17.30;99.90
2997;DHT22;1508;48.744;9.110;2022-09-01T06:40:17;17.40;99.90
2997;DHT22;1508;48.744;9.110;2022-09-01T06:43:03;17.30;99.90
2997;DHT22;1508;48.744;9.110;2022-09-01T06:45:49;17.40;99.90
2997;DHT22;1508;48.744;9.110;2022-09-01T06:48:36;17.50;99.90
2997;DHT22;1508;48.744;9.110;2022-09-01T06:51:22;17.40;99.90
2997;DHT22;1508;48.744;9.110;2022-09-01T06:54:08;17.50;99.90
2997;DHT22;1508;48.744;9.110;2022-09-01T06:56:54;17.50;99.90
2997;DHT22;1508;48.744;9.110;2022-09-01T06:59:39;17.70;99.90
2997;DHT22;1508;48.744;9.110;2022-09-01T07:02:25;17.80;99.90
2997;DHT22;1508;48.744;9.110;2022-09-01T07:05:12;17.70;99.90
2997;DHT22;1508;48.744;9.110;2022-09-01T07:07:58;17.90;99.90
2997;DHT22;1508;48.744;9.110;2022-09-01T07:10:49;18.10;99.90
2997;DHT22;1508;48.744;9.110;2022-09-01T07:13:35;18.20;99.90
2997;DHT22;1508;48.744;9.110;2022-09-01T07:16:22;18.40;99.90
2997;DHT22;1508;48.744;9.110;2022-09-01T07:19:09;18.50;99.90
2997;DHT22;1508;48.744;9.110;2022-09-01T07:21:55;18.60;99.90
2997;DHT22;1508;48.744;9.110;2022-09-01T07:24:41;18.80;99.90
2997;DHT22;1508;48.744;9.110;2022-09-01T07:27:27;18.90;99.90
2997;DHT22;1508;48.744;9.110;2022-09-01T07:30:14;19.10;99.90
2997;DHT22;1508;48.744;9.110;2022-09-01T07:33:00;19.20;99.90
2997;DHT22;1508;48.744;9.110;2022-09-01T07:35:46;19.30;99.90
2997;DHT22;1508;48.744;9.110;2022-09-01T07:38:32;19.40;99.90
2997;DHT22;1508;48.744;9.110;2022-09-01T07:41:19;19.50;99.90
2997;DHT22;1508;48.744;9.110;2022-09-01T07:44:05;19.80;99.90
2997;DHT22;1508;48.744;9.110;2022-09-01T07:46:51;19.80;99.90
2997;DHT22;1508;48.744;9.110;2022-09-01T07:49:37;19.60;99.90
2997;DHT22;1508;48.744;9.110;2022-09-01T07:52:22;19.80;99.90
2997;DHT22;1508;48.744;9.110;2022-09-01T07:55:13;19.90;99.90
2997;DHT22;1508;48.744;9.110;2022-09-01T07:57:59;20.10;99.90
2997;DHT22;1508;48.744;9.110;2022-09-01T08:00:45;20.10;99.90
2997;DHT22;1508;48.744;9.110;2022-09-01T08:03:31;20.00;99.90
2997;DHT22;1508;48.744;9.110;2022-09-01T08:06:20;19.80;99.90
2997;DHT22;1508;48.744;9.110;2022-09-01T08:09:06;19.80;99.90
2997;DHT22;1508;48.744;9.110;2022-09-01T08:11:52;19.60;99.90
2997;DHT22;1508;48.744;9.110;2022-09-01T08:14:38;19.60;99.90
2997;DHT22;1508;48.744;9.110;2022-09-01T08:17:24;19.40;99.90
2997;DHT22;1508;48.744;9.110;2022-09-01T08:20:11;19.40;99.90
2997;DHT22;1508;48.744;9.110;2022-09-01T08:22:57;19.50;99.90
2997;DHT22;1508;48.744;9.110;2022-09-01T08:25:44;19.70;99.90
2997;DHT22;1508;48.744;9.110;2022-09-01T08:28:30;19.50;99.90
2997;DHT22;1508;48.744;9.110;2022-09-01T08:31:18;19.00;99.90
2997;DHT22;1508;48.744;9.110;2022-09-01T08:34:04;19.20;99.90
2997;DHT22;1508;48.744;9.110;2022-09-01T08:36:49;19.20;99.90
2997;DHT22;1508;48.744;9.110;2022-09-01T08:39:35;19.10;99.90
2997;DHT22;1508;48.744;9.110;2022-09-01T08:45:19;19.40;99.90
2997;DHT22;1508;48.744;9.110;2022-09-01T08:51:50;19.50;99.90
2997;DHT22;1508;48.744;9.110;2022-09-01T09:00:15;19.80;99.90
2997;DHT22;1508;48.744;9.110;2022-09-01T09:06:28;19.90;99.90
2997;DHT22;1508;48.744;9.110;2022-09-01T09:09:17;20.20;99.90
2997;DHT22;1508;48.744;9.110;2022-09-01T09:21:39;20.50;99.90
2997;DHT22;1508;48.744;9.110;2022-09-01T09:35:45;21.00;99.90
2997;DHT22;1508;48.744;9.110;2022-09-01T09:38:31;21.40;99.90
2997;DHT22;1508;48.744;9.110;2022-09-01T09:41:19;21.90;99.90
2997;DHT22;1508;48.744;9.110;2022-09-01T09:47:06;22.10;99.90
2997;DHT22;1508;48.744;9.110;2022-09-01T09:50:10;21.90;99.90
2997;DHT22;1508;48.744;9.110;2022-09-01T09:53:14;21.70;99.90
2997;DHT22;1508;48.744;9.110;2022-09-01T09:56:21;21.60;99.90
2997;DHT22;1508;48.744;9.110;2022-09-01T09:59:22;21.30;99.90
2997;DHT22;1508;48.744;9.110;2022-09-01T10:02:33;21.20;99.90
2997;DHT22;1508;48.744;9.110;2022-09-01T10:05:39;21.40;99.90
2997;DHT22;1508;48.744;9.110;2022-09-01T10:11:55;21.40;99.90
2997;DHT22;1508;48.744;9.110;2022-09-01T10:14:46;21.60;99.90
2997;DHT22;1508;48.744;9.110;2022-09-01T10:17:42;21.60;99.90
2997;DHT22;1508;48.744;9.110;2022-09-01T10:20:28;21.80;99.90
2997;DHT22;1508;48.744;9.110;2022-09-01T10:23:14;22.00;99.90
2997;DHT22;1508;48.744;9.110;2022-09-01T10:26:06;22.30;99.90
2997;DHT22;1508;48.744;9.110;2022-09-01T10:28:57;22.50;99.90
2997;DHT22;1508;48.744;9.110;2022-09-01T10:31:44;22.60;99.90
2997;DHT22;1508;48.744;9.110;2022-09-01T10:34:35;22.20;99.90
2997;DHT22;1508;48.744;9.110;2022-09-01T10:37:22;22.00;99.90
2997;DHT22;1508;48.744;9.110;2022-09-01T10:40:15;22.30;99.90
2997;DHT22;1508;48.744;9.110;2022-09-01T10:49:56;22.50;99.90
2997;DHT22;1508;48.744;9.110;2022-09-01T10:55:41;22.80;99.90
2997;DHT22;1508;48.744;9.110;2022-09-01T10:58:38;22.60;99.90
2997;DHT22;1508;48.744;9.110;2022-09-01T11:10:36;22.10;99.90
2997;DHT22;1508;48.744;9.110;2022-09-01T11:13:39;22.20;99.90
2997;DHT22;1508;48.744;9.110;2022-09-01T11:16:28;22.60;99.90
2997;DHT22;1508;48.744;9.110;2022-09-01T11:19:42;22.50;99.90
2997;DHT22;1508;48.744;9.110;2022-09-01T11:25:44;23.00;99.90
2997;DHT22;1508;48.744;9.110;2022-09-01T11:28:39;23.50;99.90
2997;DHT22;1508;48.744;9.110;2022-09-01T11:31:39;23.70;99.90
2997;DHT22;1508;48.744;9.110;2022-09-01T11:34:28;23.40;99.90
2997;DHT22;1508;48.744;9.110;2022-09-01T11:37:15;23.30;99.90
2997;DHT22;1508;48.744;9.110;2022-09-01T11:40:04;22.90;99.90
2997;DHT22;1508;48.744;9.110;2022-09-01T11:42:50;22.50;99.90
2997;DHT22;1508;48.744;9.110;2022-09-01T11:45:49;22.60;99.90
2997;DHT22;1508;48.744;9.110;2022-09-01T11:48:46;22.50;99.90
2997;DHT22;1508;48.744;9.110;2022-09-01T11:51:43;22.80;99.90
2997;DHT22;1508;48.744;9.110;2022-09-01T11:54:39;22.70;99.90
2997;DHT22;1508;48.744;9.110;2022-09-01T11:57:35;22.30;99.90
2997;DHT22;1508;48.744;9.110;2022-09-01T12:00:28;22.20;99.90
2997;DHT22;1508;48.744;9.110;2022-09-01T12:06:10;22.60;99.90
2997;DHT22;1508;48.744;9.110;2022-09-01T12:09:03;23.00;99.90
2997;DHT22;1508;48.744;9.110;2022-09-01T12:11:49;23.10;99.90
2997;DHT22;1508;48.744;9.110;2022-09-01T12:14:35;23.20;99.90
2997;DHT22;1508;48.744;9.110;2022-09-01T12:17:21;23.60;99.90
2997;DHT22;1508;48.744;9.110;2022-09-01T12:20:34;24.10;99.90
2997;DHT22;1508;48.744;9.110;2022-09-01T12:23:30;24.30;99.90
2997;DHT22;1508;48.744;9.110;2022-09-01T12:26:24;24.70;99.90
2997;DHT22;1508;48.744;9.110;2022-09-01T12:29:12;24.70;99.90
2997;DHT22;1508;48.744;9.110;2022-09-01T12:31:58;24.90;99.90
2997;DHT22;1508;48.744;9.110;2022-09-01T12:35:13;24.80;99.90
2997;DHT22;1508;48.744;9.110;2022-09-01T12:38:15;24.70;99.90
2997;DHT22;1508;48.744;9.110;2022-09-01T12:41:23;24.90;99.90
2997;DHT22;1508;48.744;9.110;2022-09-01T12:44:29;25.10;99.90
2997;DHT22;1508;48.744;9.110;2022-09-01T12:53:16;25.10;99.90
2997;DHT22;1508;48.744;9.110;2022-09-01T12:56:13;25.10;99.90
2997;DHT22;1508;48.744;9.110;2022-09-01T12:59:20;25.10;99.90
2997;DHT22;1508;48.744;9.110;2022-09-01T13:02:26;24.70;99.90
2997;DHT22;1508;48.744;9.110;2022-09-01T13:05:22;24.40;99.90
2997;DHT22;1508;48.744;9.110;2022-09-01T13:08:15;24.00;99.90
2997;DHT22;1508;48.744;9.110;2022-09-01T13:13:49;23.20;99.90
2997;DHT22;1508;48.744;9.110;2022-09-01T13:16:35;22.90;99.90
2997;DHT22;1508;48.744;9.110;2022-09-01T13:19:21;22.60;99.90
2997;DHT22;1508;48.744;9.110;2022-09-01T13:22:07;22.50;99.90
2997;DHT22;1508;48.744;9.110;2022-09-01T13:24:53;22.50;99.90
2997;DHT22;1508;48.744;9.110;2022-09-01T13:27:39;22.50;99.90
2997;DHT22;1508;48.744;9.110;2022-09-01T13:30:25;22.40;99.90
2997;DHT22;1508;48.744;9.110;2022-09-01T13:33:11;22.40;99.90
2997;DHT22;1508;48.744;9.110;2022-09-01T13:35:57;22.30;99.90
2997;DHT22;1508;48.744;9.110;2022-09-01T13:38:43;22.60;99.90
2997;DHT22;1508;48.744;9.110;2022-09-01T13:41:29;22.50;99.90
2997;DHT22;1508;48.744;9.110;2022-09-01T13:44:15;22.50;99.90
2997;DHT22;1508;48.744;9.110;2022-09-01T13:47:01;22.80;99.90
2997;DHT22;1508;48.744;9.110;2022-09-01T13:49:47;23.00;99.90
2997;DHT22;1508;48.744;9.110;2022-09-01T13:52:33;23.40;99.90
2997;DHT22;1508;48.744;9.110;2022-09-01T13:55:28;23.30;99.90
2997;DHT22;1508;48.744;9.110;2022-09-01T13:58:14;23.40;99.90
2997;DHT22;1508;48.744;9.110;2022-09-01T14:01:00;23.40;99.90
2997;DHT22;1508;48.744;9.110;2022-09-01T14:03:46;23.30;99.90
2997;DHT22;1508;48.744;9.110;2022-09-01T14:06:32;23.10;99.90
2997;DHT22;1508;48.744;9.110;2022-09-01T14:09:18;23.00;99.90
2997;DHT22;1508;48.744;9.110;2022-09-01T14:12:04;23.00;99.90
2997;DHT22;1508;48.744;9.110;2022-09-01T14:14:50;22.90;99.90
2997;DHT22;1508;48.744;9.110;2022-09-01T14:17:37;22.80;99.90
2997;DHT22;1508;48.744;9.110;2022-09-01T14:20:30;22.50;99.90
2997;DHT22;1508;48.744;9.110;2022-09-01T14:23:17;22.20;99.90
2997;DHT22;1508;48.744;9.110;2022-09-01T14:26:08;22.30;99.90
2997;DHT22;1508;48.744;9.110;2022-09-01T14:28:54;22.30;99.90
2997;DHT22;1508;48.744;9.110;2022-09-01T14:31:40;22.20;99.90
2997;DHT22;1508;48.744;9.110;2022-09-01T14:34:26;22.20;99.90
2997;DHT22;1508;48.744;9.110;2022-09-01T14:37:12;22.40;99.90
2997;DHT22;1508;48.744;9.110;2022-09-01T14:39:58;22.40;99.90
2997;DHT22;1508;48.744;9.110;2022-09-01T14:42:47;22.30;99.90
2997;DHT22;1508;48.744;9.110;2022-09-01T14:45:34;22.20;99.90
2997;DHT22;1508;48.744;9.110;2022-09-01T14:48:20;22.40;99.90
2997;DHT22;1508;48.744;9.110;2022-09-01T14:51:07;22.50;99.90
2997;DHT22;1508;48.744;9.110;2022-09-01T14:53:54;22.50;99.90
2997;DHT22;1508;48.744;9.110;2022-09-01T14:56:40;22.70;99.90
2997;DHT22;1508;48.744;9.110;2022-09-01T14:59:26;22.80;99.90
2997;DHT22;1508;48.744;9.110;2022-09-01T15:02:12;22.80;99.90
2997;DHT22;1508;48.744;9.110;2022-09-01T15:04:57;22.90;99.90
2997;DHT22;1508;48.744;9.110;2022-09-01T15:07:43;23.00;99.90
2997;DHT22;1508;48.744;9.110;2022-09-01T15:10:29;23.00;99.90
2997;DHT22;1508;48.744;9.110;2022-09-01T15:13:15;23.20;99.90
2997;DHT22;1508;48.744;9.110;2022-09-01T15:16:01;23.20;99.90
2997;DHT22;1508;48.744;9.110;2022-09-01T15:18:47;23.20;99.90
2997;DHT22;1508;48.744;9.110;2022-09-01T15:21:34;23.20;99.90
2997;DHT22;1508;48.744;9.110;2022-09-01T15:24:19;23.10;99.90
2997;DHT22;1508;48.744;9.110;2022-09-01T15:27:05;23.00;99.90
2997;DHT22;1508;48.744;9.110;2022-09-01T15:29:51;23.10;99.90
2997;DHT22;1508;48.744;9.110;2022-09-01T15:32:37;23.00;99.90
2997;DHT22;1508;48.744;9.110;2022-09-01T15:35:23;23.00;99.90
2997;DHT22;1508;48.744;9.110;2022-09-01T15:38:09;22.90;99.90
2997;DHT22;1508;48.744;9.110;2022-09-01T15:40:55;23.00;99.90
2997;DHT22;1508;48.744;9.110;2022-09-01T15:43:41;23.10;99.90
2997;DHT22;1508;48.744;9.110;2022-09-01T15:46:27;23.10;99.90
2997;DHT22;1508;48.744;9.110;2022-09-01T15:49:13;23.10;99.90
2997;DHT22;1508;48.744;9.110;2022-09-01T15:51:59;23.10;99.90
2997;DHT22;1508;48.744;9.110;2022-09-01T15:54:45;22.90;99.90
2997;DHT22;1508;48.744;9.110;2022-09-01T15:57:30;22.90;99.90
2997;DHT22;1508;48.744;9.110;2022-09-01T16:00:17;22.90;99.90
2997;DHT22;1508;48.744;9.110;2022-09-01T16:03:03;22.90;99.90
2997;DHT22;1508;48.744;9.110;2022-09-01T16:05:49;22.90;99.90
2997;DHT22;1508;48.744;9.110;2022-09-01T16:08:35;22.70;99.90
2997;DHT22;1508;48.744;9.110;2022-09-01T16:11:22;22.50;99.90
2997;DHT22;1508;48.744;9.110;2022-09-01T16:14:09;22.50;99.90
2997;DHT22;1508;48.744;9.110;2022-09-01T16:16:58;22.30;99.90
2997;DHT22;1508;48.744;9.110;2022-09-01T16:22:37;22.20;99.90
2997;DHT22;1508;48.744;9.110;2022-09-01T16:25:29;22.00;99.90
2997;DHT22;1508;48.744;9.110;2022-09-01T16:28:28;22.00;99.90
2997;DHT22;1508;48.744;9.110;2022-09-01T16:31:20;22.00;99.90
2997;DHT22;1508;48.744;9.110;2022-09-01T16:34:12;22.00;99.90
2997;DHT22;1508;48.744;9.110;2022-09-01T16:37:11;22.00;99.90
2997;DHT22;1508;48.744;9.110;2022-09-01T16:44:07;21.90;99.90
2997;DHT22;1508;48.744;9.110;2022-09-01T16:50:18;21.90;99.90
2997;DHT22;1508;48.744;9.110;2022-09-01T16:53:37;21.90;99.90
2997;DHT22;1508;48.744;9.110;2022-09-01T16:56:31;21.90;99.90
2997;DHT22;1508;48.744;9.110;2022-09-01T17:05:27;21.60;99.90
2997;DHT22;1508;48.744;9.110;2022-09-01T17:11:50;21.60;99.90
2997;DHT22;1508;48.744;9.110;2022-09-01T17:14:56;21.50;99.90
2997;DHT22;1508;48.744;9.110;2022-09-01T17:20:53;21.30;99.90
2997;DHT22;1508;48.744;9.110;2022-09-01T17:23:49;21.10;99.90
2997;DHT22;1508;48.744;9.110;2022-09-01T17:26:38;21.00;99.90
2997;DHT22;1508;48.744;9.110;2022-09-01T17:29:46;21.00;99.90
2997;DHT22;1508;48.744;9.110;2022-09-01T17:35:38;20.80;99.90
2997;DHT22;1508;48.744;9.110;2022-09-01T17:41:31;20.70;99.90
2997;DHT22;1508;48.744;9.110;2022-09-01T17:47:42;20.50;99.90
2997;DHT22;1508;48.744;9.110;2022-09-01T17:57:19;20.00;99.90
2997;DHT22;1508;48.744;9.110;2022-09-01T18:00:25;20.00;99.90
2997;DHT22;1508;48.744;9.110;2022-09-01T18:09:44;19.80;99.90
2997;DHT22;1508;48.744;9.110;2022-09-01T18:12:35;19.60;99.90
2997;DHT22;1508;48.744;9.110;2022-09-01T18:15:22;19.60;99.90
2997;DHT22;1508;48.744;9.110;2022-09-01T18:18:39;19.50;99.90
2997;DHT22;1508;48.744;9.110;2022-09-01T18:21:36;19.40;99.90
2997;DHT22;1508;48.744;9.110;2022-09-01T18:24:31;19.30;99.90
2997;DHT22;1508;48.744;9.110;2022-09-01T18:27:18;19.30;99.90
2997;DHT22;1508;48.744;9.110;2022-09-01T18:30:04;19.20;99.90
2997;DHT22;1508;48.744;9.110;2022-09-01T18:33:12;19.10;99.90
2997;DHT22;1508;48.744;9.110;2022-09-01T18:36:27;19.00;99.90
2997;DHT22;1508;48.744;9.110;2022-09-01T18:39:27;18.90;99.90
2997;DHT22;1508;48.744;9.110;2022-09-01T18:45:44;18.70;99.90
2997;DHT22;1508;48.744;9.110;2022-09-01T18:55:11;18.40;99.90
2997;DHT22;1508;48.744;9.110;2022-09-01T18:58:06;18.40;99.90
2997;DHT22;1508;48.744;9.110;2022-09-01T19:01:07;18.40;99.90
2997;DHT22;1508;48.744;9.110;2022-09-01T19:04:02;18.30;99.90
2997;DHT22;1508;48.744;9.110;2022-09-01T19:07:14;18.30;99.90
2997;DHT22;1508;48.744;9.110;2022-09-01T19:10:30;18.30;99.90
2997;DHT22;1508;48.744;9.110;2022-09-01T19:13:42;18.20;99.90
2997;DHT22;1508;48.744;9.110;2022-09-01T19:22:50;18.10;99.90
2997;DHT22;1508;48.744;9.110;2022-09-01T19:25:40;18.00;99.90
2997;DHT22;1508;48.744;9.110;2022-09-01T19:32:19;17.80;99.90
2997;DHT22;1508;48.744;9.110;2022-09-01T19:35:12;17.60;99.90
2997;DHT22;1508;48.744;9.110;2022-09-01T19:37:58;17.50;99.90
2997;DHT22;1508;48.744;9.110;2022-09-01T19:40:44;17.40;99.90
2997;DHT22;1508;48.744;9.110;2022-09-01T19:43:36;17.30;99.90
2997;DHT22;1508;48.744;9.110;2022-09-01T19:46:33;17.30;99.90
2997;DHT22;1508;48.744;9.110;2022-09-01T19:49:36;17.20;99.90
2997;DHT22;1508;48.744;9.110;2022-09-01T19:52:44;17.20;99.90
2997;DHT22;1508;48.744;9.110;2022-09-01T19:55:53;17.10;99.90
2997;DHT22;1508;48.744;9.110;2022-09-01T20:02:04;17.00;99.90
2997;DHT22;1508;48.744;9.110;2022-09-01T20:05:44;16.90;99.90
2997;DHT22;1508;48.744;9.110;2022-09-01T20:11:33;16.90;99.90
2997;DHT22;1508;48.744;9.110;2022-09-01T20:17:45;16.80;99.90
2997;DHT22;1508;48.744;9.110;2022-09-01T20:20:51;16.80;99.90
2997;DHT22;1508;48.744;9.110;2022-09-01T20:26:51;16.70;99.90
2997;DHT22;1508;48.744;9.110;2022-09-01T20:30:04;16.70;99.90
2997;DHT22;1508;48.744;9.110;2022-09-01T20:35:44;16.70;99.90
2997;DHT22;1508;48.744;9.110;2022-09-01T20:39:52;16.70;99.90
2997;DHT22;1508;48.744;9.110;2022-09-01T20:42:08;16.70;99.90
2997;DHT22;1508;48.744;9.110;2022-09-01T20:45:19;16.70;99.90
2997;DHT22;1508;48.744;9.110;2022-09-01T20:48:14;16.60;99.90
2997;DHT22;1508;48.744;9.110;2022-09-01T20:51:10;16.60;99.90
2997;DHT22;1508;48.744;9.110;2022-09-01T20:54:36;16.50;99.90
2997;DHT22;1508;48.744;9.110;2022-09-01T20:57:33;16.50;99.90
2997;DHT22;1508;48.744;9.110;2022-09-01T21:00:24;16.50;99.90
2997;DHT22;1508;48.744;9.110;2022-09-01T21:03:23;16.50;99.90
2997;DHT22;1508;48.744;9.110;2022-09-01T21:15:43;16.20;99.90
2997;DHT22;1508;48.744;9.110;2022-09-01T21:24:33;15.90;99.90